createdAt,value
2023-04-08T00:02:11.802Z,36.72
2023-04-08T00:04:38.505Z,36.88
2023-04-08T00:07:06.013Z,36.94
2023-04-08T00:09:32.608Z,37.15
2023-04-08T00:11:59.365Z,36.99
2023-04-08T00:14:25.924Z,37.11
2023-04-08T00:16:52.516Z,37.35
2023-04-08T00:19:19.159Z,37.41
2023-04-08T00:21:45.759Z,37.31
2023-04-08T00:24:12.319Z,37.31
2023-04-08T00:26:39.150Z,37.23
2023-04-08T00:29:05.723Z,37.44
2023-04-08T00:31:32.258Z,37.36
2023-04-08T00:33:58.926Z,37.77
2023-04-08T00:36:27.709Z,37.75
2023-04-08T00:38:54.262Z,37.96
2023-04-08T00:41:20.914Z,38.02
2023-04-08T00:43:47.451Z,38.14
2023-04-08T00:46:14.179Z,38.25
2023-04-08T00:48:40.862Z,38.04
2023-04-08T00:51:08.033Z,37.88
2023-04-08T00:53:34.576Z,38.03
2023-04-08T00:56:01.628Z,38.30
2023-04-08T00:58:29.247Z,38.24
2023-04-08T01:01:00.735Z,38.29
2023-04-08T01:03:34.181Z,38.19
2023-04-08T01:06:07.055Z,38.42
2023-04-08T01:08:37.662Z,38.67
2023-04-08T01:11:06.085Z,38.70
2023-04-08T01:13:37.548Z,39.36
2023-04-08T01:16:04.475Z,38.95
2023-04-08T01:18:32.088Z,38.77
2023-04-08T01:20:59.288Z,39.31
2023-04-08T01:23:25.896Z,39.53
2023-04-08T01:25:56.062Z,38.99
2023-04-08T01:28:23.799Z,39.28
2023-04-08T01:30:51.540Z,39.75
2023-04-08T01:33:19.045Z,39.13
2023-04-08T01:35:46.199Z,38.98
2023-04-08T01:38:15.558Z,39.17
2023-04-08T01:40:42.524Z,39.20
2023-04-08T01:43:09.970Z,38.65
2023-04-08T01:45:36.682Z,38.86
2023-04-08T01:48:03.866Z,39.06
2023-04-08T01:50:31.179Z,38.88
2023-04-08T01:52:59.248Z,39.14
2023-04-08T01:55:26.988Z,39.04
2023-04-08T01:57:54.350Z,39.32
2023-04-08T02:00:22.908Z,39.27
2023-04-08T02:02:49.821Z,39.44
2023-04-08T02:05:16.703Z,39.75
2023-04-08T02:07:43.337Z,40.16
2023-04-08T02:10:10.081Z,39.82
2023-04-08T02:12:36.837Z,39.98
2023-04-08T02:15:03.765Z,39.67
2023-04-08T02:17:41.374Z,39.80
2023-04-08T02:20:10.114Z,40.13
2023-04-08T02:22:43.702Z,40.34
2023-04-08T02:25:13.271Z,40.91
2023-04-08T02:27:40.901Z,40.74
2023-04-08T02:30:08.714Z,40.00
2023-04-08T02:32:35.468Z,40.87
2023-04-08T02:35:03.844Z,40.82
2023-04-08T02:37:31.239Z,39.90
2023-04-08T02:39:58.324Z,40.19
2023-04-08T02:42:24.897Z,40.30
2023-04-08T02:44:51.654Z,40.21
2023-04-08T02:47:18.331Z,40.50
2023-04-08T02:49:44.878Z,40.26
2023-04-08T02:52:11.454Z,40.86
2023-04-08T02:54:38.029Z,40.86
2023-04-08T02:57:04.554Z,41.78
2023-04-08T02:59:31.097Z,40.52
2023-04-08T03:01:57.714Z,40.90
2023-04-08T03:04:24.290Z,41.09
2023-04-08T03:06:50.974Z,41.50
2023-04-08T03:09:17.531Z,40.91
2023-04-08T03:11:44.897Z,41.26
2023-04-08T03:14:11.649Z,41.08
2023-04-08T03:16:38.236Z,40.98
2023-04-08T03:19:04.832Z,41.18
2023-04-08T03:21:31.897Z,41.06
2023-04-08T03:23:58.460Z,41.62
2023-04-08T03:26:27.136Z,41.07
2023-04-08T03:28:53.700Z,41.48
2023-04-08T03:31:21.387Z,41.78
2023-04-08T03:33:48.088Z,41.50
2023-04-08T03:36:14.627Z,41.29
2023-04-08T03:38:41.211Z,41.28
2023-04-08T03:41:07.868Z,41.58
2023-04-08T03:43:36.796Z,42.06
2023-04-08T03:46:04.487Z,42.21
2023-04-08T03:48:31.101Z,41.77
2023-04-08T03:50:57.781Z,41.90
2023-04-08T03:53:24.357Z,41.88
2023-04-08T03:55:51.195Z,41.87
2023-04-08T03:58:17.826Z,41.68
2023-04-08T04:00:44.461Z,42.09
2023-04-08T04:03:13.284Z,42.16
2023-04-08T04:05:40.412Z,42.04
2023-04-08T04:08:07.467Z,42.40
2023-04-08T04:10:34.009Z,42.53
2023-04-08T04:13:00.576Z,42.58
2023-04-08T04:15:27.288Z,42.45
2023-04-08T04:17:53.928Z,42.69
2023-04-08T04:20:21.861Z,42.79
2023-04-08T04:22:48.419Z,42.87
2023-04-08T04:25:15.035Z,42.68
2023-04-08T04:27:41.610Z,42.67
2023-04-08T04:30:09.481Z,42.54
2023-04-08T04:32:36.091Z,42.85
2023-04-08T04:35:02.813Z,42.59
2023-04-08T04:37:29.961Z,43.18
2023-04-08T04:39:56.627Z,43.22
2023-04-08T04:42:23.257Z,43.05
2023-04-08T04:44:49.781Z,43.22
2023-04-08T04:47:16.660Z,42.84
2023-04-08T04:49:43.292Z,43.33
2023-04-08T04:52:09.854Z,43.02
2023-04-08T04:54:36.447Z,43.08
2023-04-08T04:57:03.216Z,42.98
2023-04-08T04:59:29.723Z,43.29
2023-04-08T05:01:57.913Z,43.05
2023-04-08T05:04:25.082Z,43.55
2023-04-08T05:06:51.716Z,43.48
2023-04-08T05:09:18.245Z,43.21
2023-04-08T05:11:44.780Z,43.16
2023-04-08T05:14:11.403Z,43.30
2023-04-08T05:16:38.836Z,42.77
2023-04-08T05:19:05.456Z,42.88
2023-04-08T05:21:32.698Z,43.10
2023-04-08T05:23:59.405Z,43.21
2023-04-08T05:26:26.386Z,43.32
2023-04-08T05:28:53.045Z,43.11
2023-04-08T05:31:20.655Z,43.04
2023-04-08T05:33:47.779Z,43.16
2023-04-08T05:36:14.748Z,43.10
2023-04-08T05:38:43.262Z,43.24
2023-04-08T05:41:09.900Z,43.14
2023-04-08T05:43:36.682Z,42.97
2023-04-08T05:46:10.312Z,43.18
2023-04-08T05:48:36.976Z,43.41
2023-04-08T05:51:03.658Z,42.79
2023-04-08T05:53:30.223Z,43.24
2023-04-08T05:55:56.791Z,45.08
2023-04-08T05:58:23.422Z,42.94
2023-04-08T06:00:49.954Z,43.02
2023-04-08T06:03:18.935Z,42.84
2023-04-08T06:05:46.972Z,43.10
2023-04-08T06:08:13.808Z,43.26
2023-04-08T06:10:40.425Z,42.76
2023-04-08T06:13:07.045Z,43.04
2023-04-08T06:15:33.663Z,42.91
2023-04-08T06:18:00.312Z,42.94
2023-04-08T06:20:27.349Z,42.93
2023-04-08T06:22:53.912Z,42.99
2023-04-08T06:25:20.443Z,43.22
2023-04-08T06:27:48.438Z,43.10
2023-04-08T06:30:15.132Z,43.10
2023-04-08T06:32:41.698Z,43.10
2023-04-08T06:35:08.599Z,43.29
2023-04-08T06:37:38.605Z,43.07
2023-04-08T06:40:06.565Z,43.20
2023-04-08T06:42:33.109Z,43.41
2023-04-08T06:44:59.750Z,43.28
2023-04-08T06:47:26.361Z,42.89
2023-04-08T06:49:53.135Z,42.71
2023-04-08T06:52:19.720Z,42.86
2023-04-08T06:54:46.577Z,42.73
2023-04-08T06:57:13.414Z,42.84
2023-04-08T06:59:40.048Z,42.74
2023-04-08T07:02:07.065Z,42.72
2023-04-08T07:04:33.629Z,42.78
2023-04-08T07:07:00.642Z,42.70
2023-04-08T07:09:27.269Z,42.79
2023-04-08T07:11:53.808Z,42.66
2023-04-08T07:14:20.572Z,42.84
2023-04-08T07:16:47.179Z,42.90
2023-04-08T07:19:13.756Z,42.71
2023-04-08T07:21:40.399Z,42.77
2023-04-08T07:24:07.287Z,42.61
2023-04-08T07:26:33.883Z,42.54
2023-04-08T07:29:00.637Z,42.64
2023-04-08T07:31:27.323Z,42.53
2023-04-08T07:33:53.958Z,42.44
2023-04-08T07:36:21.162Z,42.51
2023-04-08T07:38:48.031Z,42.25
2023-04-08T07:41:14.724Z,42.23
2023-04-08T07:43:41.447Z,42.36
2023-04-08T07:46:08.071Z,42.20
2023-04-08T07:48:34.954Z,42.21
2023-04-08T07:51:09.845Z,42.16
2023-04-08T07:53:37.546Z,42.13
2023-04-08T07:56:04.295Z,42.08
2023-04-08T07:58:32.182Z,42.17
2023-04-08T08:00:59.566Z,41.99
2023-04-08T08:03:26.576Z,41.99
2023-04-08T08:05:53.435Z,41.93
2023-04-08T08:08:20.033Z,41.91
2023-04-08T08:10:46.579Z,41.92
2023-04-08T08:13:17.105Z,41.75
2023-04-08T08:15:43.721Z,41.56
2023-04-08T08:18:10.624Z,41.48
2023-04-08T08:20:37.254Z,41.40
2023-04-08T08:23:03.796Z,41.14
2023-04-08T08:25:30.349Z,41.12
2023-04-08T08:27:56.981Z,41.05
2023-04-08T08:30:23.605Z,41.09
2023-04-08T08:32:52.187Z,41.02
2023-04-08T08:35:18.806Z,41.00
2023-04-08T08:37:45.425Z,40.50
2023-04-08T08:40:12.293Z,40.85
2023-04-08T08:42:39.350Z,40.53
2023-04-08T08:45:07.082Z,40.71
2023-04-08T08:47:33.880Z,40.44
2023-04-08T08:50:00.768Z,40.40
2023-04-08T08:52:27.302Z,40.34
2023-04-08T08:54:57.859Z,39.82
2023-04-08T08:57:24.416Z,40.25
2023-04-08T08:59:51.331Z,40.29
2023-04-08T09:02:32.151Z,39.25
2023-04-08T09:05:03.168Z,39.48
2023-04-08T09:07:31.199Z,39.12
2023-04-08T09:09:59.014Z,38.80
2023-04-08T09:12:28.122Z,38.38
2023-04-08T09:15:07.656Z,37.82
2023-04-08T09:17:35.207Z,38.40
2023-04-08T09:20:09.777Z,38.45
2023-04-08T09:22:55.497Z,38.43
2023-04-08T09:25:26.371Z,38.17
2023-04-08T09:27:53.951Z,38.42
2023-04-08T09:30:21.854Z,38.40
2023-04-08T09:32:52.339Z,38.21
2023-04-08T09:35:22.596Z,37.84
2023-04-08T09:37:50.459Z,38.20
2023-04-08T09:40:17.832Z,37.53
2023-04-08T09:42:45.696Z,37.70
2023-04-08T09:45:12.865Z,37.58
2023-04-08T09:47:44.578Z,37.42
2023-04-08T09:50:11.748Z,37.66
2023-04-08T09:52:44.222Z,37.09
2023-04-08T09:55:12.535Z,37.52
2023-04-08T09:57:57.854Z,37.58
2023-04-08T10:00:27.724Z,37.13
2023-04-08T10:03:12.978Z,37.43
2023-04-08T10:05:41.818Z,36.47
2023-04-08T10:08:08.590Z,36.91
2023-04-08T10:10:37.139Z,35.85
2023-04-08T10:13:04.616Z,36.83
2023-04-08T10:15:31.995Z,37.03
2023-04-08T10:18:08.030Z,36.37
2023-04-08T10:20:34.842Z,36.23
2023-04-08T10:23:01.995Z,36.13
2023-04-08T10:25:30.699Z,35.96
2023-04-08T10:27:57.562Z,34.94
2023-04-08T10:30:31.752Z,34.26
2023-04-08T10:33:00.054Z,33.71
2023-04-08T10:35:34.962Z,33.37
2023-04-08T10:38:02.105Z,32.50
2023-04-08T10:40:28.711Z,32.78
2023-04-08T10:42:58.801Z,32.39
2023-04-08T10:45:25.379Z,31.23
2023-04-08T10:47:52.294Z,31.11
2023-04-08T10:50:20.492Z,29.77
2023-04-08T10:52:50.922Z,29.80
2023-04-08T10:55:22.598Z,29.80
2023-04-08T10:57:50.126Z,29.08
2023-04-08T11:00:35.766Z,24.40
2023-04-08T11:03:11.969Z,26.81
2023-04-08T11:05:39.698Z,29.26
2023-04-08T11:08:06.439Z,28.43
2023-04-08T11:10:37.317Z,24.94
2023-04-08T11:13:06.568Z,27.60
2023-04-08T11:15:33.525Z,28.88
2023-04-08T11:18:00.683Z,28.78
2023-04-08T11:20:27.277Z,27.85
2023-04-08T11:22:53.871Z,26.39
2023-04-08T11:25:20.680Z,27.29
2023-04-08T11:27:47.637Z,27.65
2023-04-08T11:30:14.365Z,26.64
2023-04-08T11:32:41.226Z,27.77
2023-04-08T11:35:07.906Z,28.27
2023-04-08T11:37:38.326Z,28.28
2023-04-08T11:40:11.267Z,25.60
2023-04-08T11:42:38.159Z,27.50
2023-04-08T11:45:14.813Z,26.98
2023-04-08T11:47:41.837Z,27.07
2023-04-08T11:50:09.311Z,26.48
2023-04-08T11:52:42.073Z,26.65
2023-04-08T11:55:10.675Z,26.37
2023-04-08T11:57:37.724Z,26.30
2023-04-08T12:00:07.553Z,26.75
2023-04-08T12:02:34.304Z,26.34
2023-04-08T12:05:01.432Z,25.91
2023-04-08T12:07:28.185Z,25.52
2023-04-08T12:09:54.967Z,25.40
2023-04-08T12:12:21.581Z,25.46
2023-04-08T12:14:48.150Z,24.80
2023-04-08T12:17:14.723Z,25.19
2023-04-08T12:19:41.369Z,24.86
2023-04-08T12:22:07.897Z,24.75
2023-04-08T12:24:34.587Z,24.41
2023-04-08T12:27:02.533Z,24.37
2023-04-08T12:29:29.464Z,24.12
2023-04-08T12:31:56.135Z,24.30
2023-04-08T12:34:22.772Z,24.00
2023-04-08T12:36:49.915Z,23.98
2023-04-08T12:39:16.806Z,23.85
2023-04-08T12:41:43.373Z,23.54
2023-04-08T12:44:09.962Z,23.56
2023-04-08T12:46:36.597Z,24.35
2023-04-08T12:49:05.123Z,24.21
2023-04-08T12:51:32.381Z,23.90
2023-04-08T12:54:00.650Z,24.20
2023-04-08T12:56:27.254Z,24.00
2023-04-08T12:58:55.429Z,23.89
2023-04-08T13:01:22.177Z,23.52
2023-04-08T13:03:49.162Z,23.06
2023-04-08T13:06:16.170Z,24.05
2023-04-08T13:08:43.267Z,25.35
2023-04-08T13:11:09.858Z,24.97
2023-04-08T13:13:36.695Z,25.15
2023-04-08T13:16:03.290Z,24.70
2023-04-08T13:18:29.993Z,25.27
2023-04-08T13:20:58.110Z,25.43
2023-04-08T13:23:24.751Z,25.87
2023-04-08T13:25:51.625Z,25.94
2023-04-08T13:28:18.283Z,25.63
2023-04-08T13:30:44.844Z,25.46
2023-04-08T13:33:11.725Z,25.21
2023-04-08T13:35:38.320Z,25.46
2023-04-08T13:38:04.888Z,25.27
2023-04-08T13:40:31.856Z,24.99
2023-04-08T13:42:58.656Z,24.77
2023-04-08T13:45:25.421Z,25.44
2023-04-08T13:47:58.145Z,25.15
2023-04-08T13:50:24.832Z,25.24
2023-04-08T13:52:51.538Z,23.43
2023-04-08T13:55:18.158Z,25.43
2023-04-08T13:57:44.848Z,25.68
2023-04-08T14:00:11.951Z,25.41
2023-04-08T14:02:38.665Z,25.40
2023-04-08T14:05:05.544Z,25.64
2023-04-08T14:07:32.145Z,25.50
2023-04-08T14:09:58.709Z,24.42
2023-04-08T14:12:25.260Z,26.01
2023-04-08T14:14:51.804Z,26.26
2023-04-08T14:17:18.494Z,26.06
2023-04-08T14:19:45.060Z,26.56
2023-04-08T14:22:12.384Z,26.05
2023-04-08T14:24:38.957Z,25.69
2023-04-08T14:27:05.588Z,25.61
2023-04-08T14:29:32.238Z,25.68
2023-04-08T14:31:59.053Z,25.72
2023-04-08T14:34:25.882Z,25.51
2023-04-08T14:36:52.417Z,25.97
2023-04-08T14:39:18.964Z,26.10
2023-04-08T14:41:47.705Z,26.27
2023-04-08T14:44:14.254Z,26.61
2023-04-08T14:46:40.821Z,26.69
2023-04-08T14:49:07.467Z,27.21
2023-04-08T14:51:34.059Z,27.06
2023-04-08T14:54:02.079Z,27.46
2023-04-08T14:56:28.664Z,27.76
2023-04-08T14:58:55.806Z,27.53
2023-04-08T15:01:22.410Z,27.82
2023-04-08T15:03:49.077Z,27.88
2023-04-08T15:06:17.888Z,28.05
2023-04-08T15:08:45.740Z,28.05
2023-04-08T15:11:12.349Z,28.34
2023-04-08T15:13:38.887Z,28.43
2023-04-08T15:16:06.000Z,28.29
2023-04-08T15:18:32.593Z,28.37
2023-04-08T15:20:59.165Z,28.50
2023-04-08T15:23:25.670Z,28.75
2023-04-08T15:25:52.239Z,28.72
2023-04-08T15:28:18.808Z,29.01
2023-04-08T15:30:45.548Z,29.49
2023-04-08T15:33:12.178Z,29.34
2023-04-08T15:35:39.000Z,29.44
2023-04-08T15:38:05.617Z,29.47
2023-04-08T15:40:35.983Z,29.59
2023-04-08T15:43:03.851Z,29.54
2023-04-08T15:45:30.626Z,29.59
2023-04-08T15:47:57.301Z,29.76
2023-04-08T15:50:23.897Z,29.61
2023-04-08T15:52:50.511Z,29.73
2023-04-08T15:55:17.065Z,30.11
2023-04-08T15:57:43.609Z,30.01
2023-04-08T16:00:11.159Z,30.22
2023-04-08T16:02:37.934Z,30.25
2023-04-08T16:05:04.741Z,30.18
2023-04-08T16:07:31.337Z,30.51
2023-04-08T16:09:59.093Z,30.44
2023-04-08T16:12:25.892Z,30.54
2023-04-08T16:14:52.525Z,30.85
2023-04-08T16:17:19.172Z,31.23
2023-04-08T16:19:45.713Z,30.85
2023-04-08T16:22:12.271Z,31.26
2023-04-08T16:24:38.801Z,31.02
2023-04-08T16:27:05.498Z,31.24
2023-04-08T16:29:32.599Z,31.45
2023-04-08T16:31:59.176Z,31.19
2023-04-08T16:34:25.763Z,31.57
2023-04-08T16:36:52.793Z,31.53
2023-04-08T16:39:19.397Z,31.89
2023-04-08T16:41:45.933Z,31.88
2023-04-08T16:44:12.586Z,32.05
2023-04-08T16:46:39.219Z,32.03
2023-04-08T16:49:05.927Z,31.83
2023-04-08T16:51:32.748Z,31.85
2023-04-08T16:53:59.984Z,32.28
2023-04-08T16:56:27.116Z,32.18
2023-04-08T16:58:53.671Z,32.46
2023-04-08T17:01:20.799Z,32.53
2023-04-08T17:03:48.752Z,32.82
2023-04-08T17:06:15.534Z,32.88
2023-04-08T17:08:45.138Z,32.92
2023-04-08T17:11:13.164Z,33.16
2023-04-08T17:13:41.296Z,33.10
2023-04-08T17:16:11.608Z,33.14
2023-04-08T17:18:38.173Z,33.32
2023-04-08T17:21:04.898Z,33.44
2023-04-08T17:23:31.617Z,33.44
2023-04-08T17:25:58.127Z,33.72
2023-04-08T17:28:24.745Z,33.53
2023-04-08T17:30:51.480Z,33.84
2023-04-08T17:33:18.095Z,33.91
2023-04-08T17:35:44.672Z,33.88
2023-04-08T17:38:11.226Z,33.95
2023-04-08T17:40:38.613Z,34.06
2023-04-08T17:43:05.169Z,34.03
2023-04-08T17:45:31.818Z,34.56
2023-04-08T17:47:58.802Z,34.53
2023-04-08T17:50:25.609Z,34.34
2023-04-08T17:52:52.238Z,34.47
2023-04-08T17:55:18.820Z,34.71
2023-04-08T17:57:45.461Z,34.79
2023-04-08T18:00:12.203Z,34.89
2023-04-08T18:02:39.007Z,35.29
2023-04-08T18:05:06.571Z,35.10
2023-04-08T18:07:33.394Z,35.28
2023-04-08T18:09:59.970Z,35.44
2023-04-08T18:12:28.255Z,35.56
2023-04-08T18:14:54.856Z,35.57
2023-04-08T18:17:21.488Z,35.66
2023-04-08T18:19:48.116Z,35.62
2023-04-08T18:22:14.731Z,36.75
2023-04-08T18:24:41.320Z,36.42
2023-04-08T18:27:08.553Z,36.13
2023-04-08T18:29:35.160Z,36.49
2023-04-08T18:32:01.747Z,37.82
2023-04-08T18:34:28.609Z,36.82
2023-04-08T18:36:55.161Z,38.13
2023-04-08T18:39:21.944Z,40.56
2023-04-08T18:41:48.525Z,38.92
2023-04-08T18:44:15.659Z,37.60
2023-04-08T18:46:42.299Z,40.07
2023-04-08T18:49:08.902Z,40.45
2023-04-08T18:51:35.454Z,37.83
2023-04-08T18:54:01.992Z,38.29
2023-04-08T18:56:28.686Z,38.43
2023-04-08T18:58:55.322Z,39.20
2023-04-08T19:01:22.161Z,38.56
2023-04-08T19:03:48.918Z,38.72
2023-04-08T19:06:17.375Z,38.86
2023-04-08T19:08:44.261Z,39.14
2023-04-08T19:11:11.673Z,39.30
2023-04-08T19:13:38.205Z,38.94
2023-04-08T19:16:05.119Z,39.10
2023-04-08T19:18:31.759Z,40.30
2023-04-08T19:20:58.376Z,39.38
2023-04-08T19:23:24.923Z,39.30
2023-04-08T19:25:51.492Z,40.04
2023-04-08T19:28:18.040Z,39.33
2023-04-08T19:30:44.633Z,39.55
2023-04-08T19:33:11.250Z,40.90
2023-04-08T19:35:38.119Z,40.01
2023-04-08T19:38:05.700Z,40.40
2023-04-08T19:40:32.276Z,40.57
2023-04-08T19:42:58.849Z,39.97
2023-04-08T19:45:25.452Z,40.75
2023-04-08T19:47:52.085Z,40.52
2023-04-08T19:50:21.197Z,41.15
2023-04-08T19:52:47.770Z,40.70
2023-04-08T19:55:14.991Z,40.24
2023-04-08T19:57:41.642Z,41.45
2023-04-08T20:00:08.505Z,41.46
2023-04-08T20:02:35.328Z,41.25
2023-04-08T20:05:02.381Z,41.10
2023-04-08T20:07:30.054Z,41.58
2023-04-08T20:09:56.652Z,41.62
2023-04-08T20:12:23.252Z,41.40
2023-04-08T20:14:49.778Z,41.70
2023-04-08T20:17:17.965Z,42.31
2023-04-08T20:19:44.654Z,42.86
2023-04-08T20:22:11.240Z,41.46
2023-04-08T20:24:37.811Z,41.72
2023-04-08T20:27:04.469Z,42.41
2023-04-08T20:29:31.026Z,42.38
2023-04-08T20:31:57.847Z,42.12
2023-04-08T20:34:24.452Z,42.54
2023-04-08T20:36:51.048Z,42.45
2023-04-08T20:39:17.988Z,45.13
2023-04-08T20:41:44.618Z,45.97
2023-04-08T20:44:11.175Z,44.46
2023-04-08T20:46:37.904Z,43.36
2023-04-08T20:49:05.042Z,44.70
2023-04-08T20:51:33.818Z,43.64
2023-04-08T20:54:00.586Z,44.85
2023-04-08T20:56:27.334Z,44.50
2023-04-08T20:58:54.249Z,44.16
2023-04-08T21:01:21.669Z,44.52
2023-04-08T21:03:49.057Z,48.29
2023-04-08T21:06:17.004Z,45.79
2023-04-08T21:08:43.663Z,46.36
2023-04-08T21:11:10.243Z,45.70
2023-04-08T21:13:37.165Z,45.22
2023-04-08T21:16:03.965Z,45.43
2023-04-08T21:18:30.503Z,46.03
2023-04-08T21:20:57.323Z,47.08
2023-04-08T21:23:23.836Z,48.94
2023-04-08T21:25:50.465Z,49.51
2023-04-08T21:28:17.500Z,47.22
2023-04-08T21:30:44.114Z,48.36
2023-04-08T21:33:10.806Z,46.84
2023-04-08T21:35:37.487Z,49.44
2023-04-08T21:38:04.139Z,48.16
2023-04-08T21:40:30.681Z,46.64
2023-04-08T21:42:57.246Z,47.18
2023-04-08T21:45:24.790Z,47.96
2023-04-08T21:47:51.372Z,46.87
2023-04-08T21:50:17.957Z,48.11
2023-04-08T21:52:44.553Z,47.27
2023-04-08T21:55:11.150Z,47.70
2023-04-08T21:57:39.350Z,48.32
2023-04-08T22:00:13.158Z,48.31
2023-04-08T22:02:42.646Z,51.02
2023-04-08T22:05:09.613Z,48.48
2023-04-08T22:07:36.347Z,48.70
2023-04-08T22:10:03.093Z,48.55
2023-04-08T22:12:30.735Z,48.67
2023-04-08T22:14:57.408Z,48.29
2023-04-08T22:17:24.102Z,48.24
2023-04-08T22:19:50.846Z,48.84
2023-04-08T22:22:17.426Z,48.82
2023-04-08T22:24:44.168Z,48.80
2023-04-08T22:27:10.970Z,48.72
2023-04-08T22:29:37.539Z,48.44
2023-04-08T22:32:04.198Z,48.80
2023-04-08T22:34:30.824Z,49.20
2023-04-08T22:36:57.372Z,49.86
2023-04-08T22:39:26.154Z,49.75
2023-04-08T22:41:52.726Z,49.74
2023-04-08T22:44:19.274Z,49.69
2023-04-08T22:46:46.031Z,49.90
2023-04-08T22:49:12.641Z,49.84
2023-04-08T22:51:39.170Z,49.96
2023-04-08T22:54:05.736Z,50.20
2023-04-08T22:56:32.340Z,50.49
2023-04-08T22:58:58.904Z,50.18
2023-04-08T23:01:25.517Z,50.57
2023-04-08T23:03:52.188Z,50.70
2023-04-08T23:06:18.943Z,50.73
2023-04-08T23:08:45.538Z,50.87
2023-04-08T23:11:12.090Z,51.02
2023-04-08T23:13:38.619Z,51.11
2023-04-08T23:16:05.632Z,51.49
2023-04-08T23:18:32.155Z,52.80
2023-04-08T23:20:58.728Z,52.26
2023-04-08T23:23:25.535Z,51.62
2023-04-08T23:25:54.956Z,52.35
2023-04-08T23:28:22.161Z,51.88
2023-04-08T23:30:48.765Z,51.98
2023-04-08T23:33:15.370Z,52.11
2023-04-08T23:35:42.232Z,52.35
2023-04-08T23:38:08.884Z,52.16
2023-04-08T23:40:35.499Z,52.59
2023-04-08T23:43:02.022Z,52.32
2023-04-08T23:45:28.605Z,53.01
2023-04-08T23:47:55.251Z,53.12
2023-04-08T23:50:23.078Z,53.20
2023-04-08T23:52:51.281Z,52.80
2023-04-08T23:55:17.855Z,53.09
2023-04-08T23:57:44.438Z,53.12
